KEKO/EKO METAR and TAF weather

Enter ICAO airport designator
Station Type Date Time Source
KEKO METAR 2020/11/25 21:56 UTC NOAA

KEKO 252156Z AUTO 31005KT 7SM -SN SCT021 BKN028 OVC060 01/M03 A3004 RMK AO2 SLP199 P0001 T00111028


Station Type Date Time Source
KEKO Decoded METAR 2020/11/25 21:56 UTC NOAA

ELKO REGIONAL AIRPORT, NV, United States (KEKO) 40-50N 115-47W 1547M
Nov 25, 2020 - 04:56 PM EST / 2020.11.25 2156 UTC
Wind: from the NW (310 degrees) at 6 MPH (5 KT):0
Visibility: 7 mile(s):0
Sky conditions: overcast
Weather: light snow
Precipitation last hour: 0.01 inches
Temperature: 34.0 F (1.1 C)
Windchill: 28 F (-2 C):1
Dew Point: 27.0 F (-2.8 C)
Relative Humidity: 75%
Pressure (altimeter): 30.04 in. Hg (1017 hPa)
ob: KEKO 252156Z AUTO 31005KT 7SM -SN SCT021 BKN028 OVC060 01/M03 A3004 RMK AO2 SLP199 P0001 T00111028
cycle: 22

Station Type Date Time Source
KEKO TAF 2020/11/25 18:22 UTC NOAA

TAF KEKO 251720Z 2518/2618 26008KT P6SM VCSH SCT025 OVC035
TEMPO 2519/2523 27012G22KT 3SM -SN OVC015
FM260000 VRB05KT P6SM VCSH SCT050 BKN100
FM260300 VRB03KT P6SM SCT050
FM261500 23006KT P6SM SKC

Example: see airport list